sensor_id;sensor_type;location;lat;lon;timestamp;P1;durP1;ratioP1;P2;durP2;ratioP2
68866;SDS011;56451;44.804;20.476;2022-10-16T00:00:43;6.07;;;3.60;;
68866;SDS011;56451;44.804;20.476;2022-10-16T00:03:10;8.40;;;3.83;;
68866;SDS011;56451;44.804;20.476;2022-10-16T00:05:40;7.03;;;3.50;;
68866;SDS011;56451;44.804;20.476;2022-10-16T00:08:08;6.78;;;3.00;;
68866;SDS011;56451;44.804;20.476;2022-10-16T00:10:36;7.30;;;3.20;;
68866;SDS011;56451;44.804;20.476;2022-10-16T00:13:02;6.45;;;3.53;;
68866;SDS011;56451;44.804;20.476;2022-10-16T00:15:30;8.05;;;3.45;;
68866;SDS011;56451;44.804;20.476;2022-10-16T00:17:58;7.57;;;3.15;;
68866;SDS011;56451;44.804;20.476;2022-10-16T00:20:24;6.60;;;3.40;;
68866;SDS011;56451;44.804;20.476;2022-10-16T00:23:08;7.45;;;2.80;;
68866;SDS011;56451;44.804;20.476;2022-10-16T00:25:37;6.82;;;3.33;;
68866;SDS011;56451;44.804;20.476;2022-10-16T00:28:02;5.57;;;3.40;;
68866;SDS011;56451;44.804;20.476;2022-10-16T00:30:28;7.37;;;3.40;;
68866;SDS011;56451;44.804;20.476;2022-10-16T00:32:55;7.30;;;3.65;;
68866;SDS011;56451;44.804;20.476;2022-10-16T00:35:21;9.63;;;3.30;;
68866;SDS011;56451;44.804;20.476;2022-10-16T00:37:49;9.55;;;3.38;;
68866;SDS011;56451;44.804;20.476;2022-10-16T00:40:15;6.73;;;3.30;;
68866;SDS011;56451;44.804;20.476;2022-10-16T00:42:41;8.13;;;3.28;;
68866;SDS011;56451;44.804;20.476;2022-10-16T00:45:08;6.80;;;3.53;;
68866;SDS011;56451;44.804;20.476;2022-10-16T00:47:37;7.55;;;3.42;;
68866;SDS011;56451;44.804;20.476;2022-10-16T00:50:16;10.90;;;3.20;;
68866;SDS011;56451;44.804;20.476;2022-10-16T00:52:43;6.57;;;3.15;;
68866;SDS011;56451;44.804;20.476;2022-10-16T00:55:13;4.57;;;2.70;;
68866;SDS011;56451;44.804;20.476;2022-10-16T00:57:39;5.82;;;3.03;;
68866;SDS011;56451;44.804;20.476;2022-10-16T01:00:07;5.90;;;3.30;;
68866;SDS011;56451;44.804;20.476;2022-10-16T01:02:35;8.57;;;3.40;;
68866;SDS011;56451;44.804;20.476;2022-10-16T01:05:01;5.72;;;3.08;;
68866;SDS011;56451;44.804;20.476;2022-10-16T01:07:51;6.35;;;3.03;;
68866;SDS011;56451;44.804;20.476;2022-10-16T01:10:29;4.50;;;3.30;;
68866;SDS011;56451;44.804;20.476;2022-10-16T01:15:54;4.97;;;3.40;;
68866;SDS011;56451;44.804;20.476;2022-10-16T01:18:34;8.80;;;2.80;;
68866;SDS011;56451;44.804;20.476;2022-10-16T01:24:03;5.37;;;3.10;;
68866;SDS011;56451;44.804;20.476;2022-10-16T01:29:26;6.68;;;3.35;;
68866;SDS011;56451;44.804;20.476;2022-10-16T01:32:15;5.53;;;3.30;;
68866;SDS011;56451;44.804;20.476;2022-10-16T01:35:06;6.95;;;3.38;;
68866;SDS011;56451;44.804;20.476;2022-10-16T01:37:36;5.03;;;2.83;;
68866;SDS011;56451;44.804;20.476;2022-10-16T01:40:07;7.30;;;3.30;;
68866;SDS011;56451;44.804;20.476;2022-10-16T01:42:40;8.55;;;3.67;;
68866;SDS011;56451;44.804;20.476;2022-10-16T01:45:11;6.03;;;3.08;;
68866;SDS011;56451;44.804;20.476;2022-10-16T01:47:39;6.05;;;2.90;;
68866;SDS011;56451;44.804;20.476;2022-10-16T01:50:07;6.47;;;3.00;;
68866;SDS011;56451;44.804;20.476;2022-10-16T01:52:40;5.50;;;2.88;;
68866;SDS011;56451;44.804;20.476;2022-10-16T01:55:08;6.00;;;3.40;;
68866;SDS011;56451;44.804;20.476;2022-10-16T01:57:37;10.13;;;3.70;;
68866;SDS011;56451;44.804;20.476;2022-10-16T02:00:07;7.07;;;3.60;;
68866;SDS011;56451;44.804;20.476;2022-10-16T02:02:39;8.37;;;3.37;;
68866;SDS011;56451;44.804;20.476;2022-10-16T02:07:49;7.38;;;3.03;;
68866;SDS011;56451;44.804;20.476;2022-10-16T02:10:15;7.40;;;3.40;;
68866;SDS011;56451;44.804;20.476;2022-10-16T02:12:43;5.82;;;2.92;;
68866;SDS011;56451;44.804;20.476;2022-10-16T02:15:13;6.03;;;3.53;;
68866;SDS011;56451;44.804;20.476;2022-10-16T02:17:39;5.45;;;3.40;;
68866;SDS011;56451;44.804;20.476;2022-10-16T02:20:05;5.47;;;3.15;;
68866;SDS011;56451;44.804;20.476;2022-10-16T02:22:42;4.28;;;3.38;;
68866;SDS011;56451;44.804;20.476;2022-10-16T02:25:30;7.67;;;2.80;;
68866;SDS011;56451;44.804;20.476;2022-10-16T02:30:36;4.45;;;3.05;;
68866;SDS011;56451;44.804;20.476;2022-10-16T02:33:07;6.40;;;3.22;;
68866;SDS011;56451;44.804;20.476;2022-10-16T02:35:36;5.43;;;3.15;;
68866;SDS011;56451;44.804;20.476;2022-10-16T02:38:03;7.70;;;3.70;;
68866;SDS011;56451;44.804;20.476;2022-10-16T02:40:30;9.68;;;2.85;;
68866;SDS011;56451;44.804;20.476;2022-10-16T02:42:56;7.85;;;3.35;;
68866;SDS011;56451;44.804;20.476;2022-10-16T02:45:23;6.15;;;2.67;;
68866;SDS011;56451;44.804;20.476;2022-10-16T02:47:49;4.40;;;3.08;;
68866;SDS011;56451;44.804;20.476;2022-10-16T02:50:15;5.20;;;2.90;;
68866;SDS011;56451;44.804;20.476;2022-10-16T02:52:42;7.25;;;2.88;;
68866;SDS011;56451;44.804;20.476;2022-10-16T02:55:08;4.90;;;3.10;;
68866;SDS011;56451;44.804;20.476;2022-10-16T02:57:33;8.05;;;3.22;;
68866;SDS011;56451;44.804;20.476;2022-10-16T03:00:04;5.07;;;3.10;;
68866;SDS011;56451;44.804;20.476;2022-10-16T03:02:31;5.07;;;3.03;;
68866;SDS011;56451;44.804;20.476;2022-10-16T03:04:59;5.90;;;3.00;;
68866;SDS011;56451;44.804;20.476;2022-10-16T03:07:26;5.80;;;2.85;;
68866;SDS011;56451;44.804;20.476;2022-10-16T03:09:51;6.17;;;3.10;;
68866;SDS011;56451;44.804;20.476;2022-10-16T03:12:17;5.97;;;3.05;;
68866;SDS011;56451;44.804;20.476;2022-10-16T03:14:43;4.65;;;3.10;;
68866;SDS011;56451;44.804;20.476;2022-10-16T03:17:09;5.03;;;3.08;;
68866;SDS011;56451;44.804;20.476;2022-10-16T03:19:35;3.90;;;2.77;;
68866;SDS011;56451;44.804;20.476;2022-10-16T03:22:01;4.90;;;3.22;;
68866;SDS011;56451;44.804;20.476;2022-10-16T03:24:27;4.20;;;2.95;;
68866;SDS011;56451;44.804;20.476;2022-10-16T03:26:53;5.77;;;3.03;;
68866;SDS011;56451;44.804;20.476;2022-10-16T03:29:19;5.35;;;3.00;;
68866;SDS011;56451;44.804;20.476;2022-10-16T03:31:44;5.30;;;3.20;;
68866;SDS011;56451;44.804;20.476;2022-10-16T03:34:10;6.90;;;3.30;;
68866;SDS011;56451;44.804;20.476;2022-10-16T03:36:36;3.85;;;2.83;;
68866;SDS011;56451;44.804;20.476;2022-10-16T03:39:02;6.80;;;2.87;;
68866;SDS011;56451;44.804;20.476;2022-10-16T03:41:28;4.90;;;2.65;;
68866;SDS011;56451;44.804;20.476;2022-10-16T03:43:56;5.65;;;3.20;;
68866;SDS011;56451;44.804;20.476;2022-10-16T03:46:22;5.80;;;3.13;;
68866;SDS011;56451;44.804;20.476;2022-10-16T03:48:48;6.87;;;3.43;;
68866;SDS011;56451;44.804;20.476;2022-10-16T03:51:14;7.10;;;3.47;;
68866;SDS011;56451;44.804;20.476;2022-10-16T03:53:40;7.47;;;3.43;;
68866;SDS011;56451;44.804;20.476;2022-10-16T03:56:06;9.30;;;3.30;;
68866;SDS011;56451;44.804;20.476;2022-10-16T03:58:35;3.70;;;2.63;;
68866;SDS011;56451;44.804;20.476;2022-10-16T04:01:01;7.13;;;3.70;;
68866;SDS011;56451;44.804;20.476;2022-10-16T04:03:27;4.47;;;3.23;;
68866;SDS011;56451;44.804;20.476;2022-10-16T04:05:53;5.15;;;3.30;;
68866;SDS011;56451;44.804;20.476;2022-10-16T04:08:19;6.53;;;3.30;;
68866;SDS011;56451;44.804;20.476;2022-10-16T04:10:45;6.65;;;3.35;;
68866;SDS011;56451;44.804;20.476;2022-10-16T04:13:14;8.50;;;3.30;;
68866;SDS011;56451;44.804;20.476;2022-10-16T04:15:40;6.10;;;3.30;;
68866;SDS011;56451;44.804;20.476;2022-10-16T04:18:06;6.88;;;3.30;;
68866;SDS011;56451;44.804;20.476;2022-10-16T04:20:32;6.20;;;3.40;;
68866;SDS011;56451;44.804;20.476;2022-10-16T04:22:59;6.47;;;3.88;;
68866;SDS011;56451;44.804;20.476;2022-10-16T04:25:25;6.73;;;3.57;;
68866;SDS011;56451;44.804;20.476;2022-10-16T04:27:52;5.32;;;3.40;;
68866;SDS011;56451;44.804;20.476;2022-10-16T04:30:19;7.50;;;3.45;;
68866;SDS011;56451;44.804;20.476;2022-10-16T04:32:48;7.88;;;3.45;;
68866;SDS011;56451;44.804;20.476;2022-10-16T04:35:16;6.75;;;3.33;;
68866;SDS011;56451;44.804;20.476;2022-10-16T04:37:43;4.10;;;3.20;;
68866;SDS011;56451;44.804;20.476;2022-10-16T04:40:09;7.32;;;3.20;;
68866;SDS011;56451;44.804;20.476;2022-10-16T04:42:35;4.93;;;3.20;;
68866;SDS011;56451;44.804;20.476;2022-10-16T04:45:01;5.22;;;2.92;;
68866;SDS011;56451;44.804;20.476;2022-10-16T04:47:27;5.03;;;3.20;;
68866;SDS011;56451;44.804;20.476;2022-10-16T04:49:53;5.05;;;2.80;;
68866;SDS011;56451;44.804;20.476;2022-10-16T04:52:19;7.05;;;3.53;;
68866;SDS011;56451;44.804;20.476;2022-10-16T04:54:46;5.13;;;3.00;;
68866;SDS011;56451;44.804;20.476;2022-10-16T04:57:12;5.37;;;3.27;;
68866;SDS011;56451;44.804;20.476;2022-10-16T04:59:38;5.55;;;3.42;;
68866;SDS011;56451;44.804;20.476;2022-10-16T05:02:07;4.30;;;3.15;;
68866;SDS011;56451;44.804;20.476;2022-10-16T05:04:33;6.85;;;3.25;;
68866;SDS011;56451;44.804;20.476;2022-10-16T05:06:59;4.80;;;3.23;;
68866;SDS011;56451;44.804;20.476;2022-10-16T05:09:25;7.15;;;3.25;;
68866;SDS011;56451;44.804;20.476;2022-10-16T05:11:51;9.85;;;3.58;;
68866;SDS011;56451;44.804;20.476;2022-10-16T05:14:17;6.68;;;2.78;;
68866;SDS011;56451;44.804;20.476;2022-10-16T05:16:43;4.57;;;3.13;;
68866;SDS011;56451;44.804;20.476;2022-10-16T05:19:10;4.95;;;2.97;;
68866;SDS011;56451;44.804;20.476;2022-10-16T05:21:36;5.05;;;3.20;;
68866;SDS011;56451;44.804;20.476;2022-10-16T05:24:04;4.30;;;3.13;;
68866;SDS011;56451;44.804;20.476;2022-10-16T05:26:30;4.60;;;3.13;;
68866;SDS011;56451;44.804;20.476;2022-10-16T05:28:56;4.25;;;3.20;;
68866;SDS011;56451;44.804;20.476;2022-10-16T05:31:22;6.00;;;3.22;;
68866;SDS011;56451;44.804;20.476;2022-10-16T05:33:48;5.33;;;3.17;;
68866;SDS011;56451;44.804;20.476;2022-10-16T05:36:14;8.02;;;3.30;;
68866;SDS011;56451;44.804;20.476;2022-10-16T05:38:39;7.28;;;3.30;;
68866;SDS011;56451;44.804;20.476;2022-10-16T05:41:05;7.83;;;3.40;;
68866;SDS011;56451;44.804;20.476;2022-10-16T05:43:31;6.35;;;3.40;;
68866;SDS011;56451;44.804;20.476;2022-10-16T05:45:58;5.95;;;3.20;;
68866;SDS011;56451;44.804;20.476;2022-10-16T05:48:26;6.10;;;3.10;;
68866;SDS011;56451;44.804;20.476;2022-10-16T05:53:31;4.75;;;3.03;;
68866;SDS011;56451;44.804;20.476;2022-10-16T05:55:58;4.10;;;3.10;;
68866;SDS011;56451;44.804;20.476;2022-10-16T05:58:31;5.20;;;3.00;;
68866;SDS011;56451;44.804;20.476;2022-10-16T06:00:59;4.40;;;3.03;;
68866;SDS011;56451;44.804;20.476;2022-10-16T06:03:27;4.63;;;3.00;;
68866;SDS011;56451;44.804;20.476;2022-10-16T06:05:56;7.75;;;3.22;;
68866;SDS011;56451;44.804;20.476;2022-10-16T06:08:22;8.02;;;4.00;;
68866;SDS011;56451;44.804;20.476;2022-10-16T06:10:49;5.40;;;3.20;;
68866;SDS011;56451;44.804;20.476;2022-10-16T06:13:25;5.80;;;3.05;;
68866;SDS011;56451;44.804;20.476;2022-10-16T06:15:51;7.20;;;3.13;;
68866;SDS011;56451;44.804;20.476;2022-10-16T06:18:17;7.33;;;3.53;;
68866;SDS011;56451;44.804;20.476;2022-10-16T06:20:43;5.72;;;3.20;;
68866;SDS011;56451;44.804;20.476;2022-10-16T06:23:09;5.68;;;3.70;;
68866;SDS011;56451;44.804;20.476;2022-10-16T06:25:34;4.97;;;3.00;;
68866;SDS011;56451;44.804;20.476;2022-10-16T06:28:00;8.68;;;3.72;;
68866;SDS011;56451;44.804;20.476;2022-10-16T06:30:26;6.33;;;3.70;;
68866;SDS011;56451;44.804;20.476;2022-10-16T06:32:52;7.50;;;3.40;;
68866;SDS011;56451;44.804;20.476;2022-10-16T06:35:18;5.97;;;3.72;;
68866;SDS011;56451;44.804;20.476;2022-10-16T06:37:44;9.52;;;3.22;;
68866;SDS011;56451;44.804;20.476;2022-10-16T06:40:10;9.83;;;3.80;;
68866;SDS011;56451;44.804;20.476;2022-10-16T06:42:42;6.18;;;3.42;;
68866;SDS011;56451;44.804;20.476;2022-10-16T06:45:10;6.72;;;3.50;;
68866;SDS011;56451;44.804;20.476;2022-10-16T06:47:36;10.20;;;3.93;;
68866;SDS011;56451;44.804;20.476;2022-10-16T06:50:02;5.93;;;3.83;;
68866;SDS011;56451;44.804;20.476;2022-10-16T06:52:29;6.75;;;3.60;;
68866;SDS011;56451;44.804;20.476;2022-10-16T06:54:55;6.53;;;3.35;;
68866;SDS011;56451;44.804;20.476;2022-10-16T06:57:20;6.03;;;3.63;;
68866;SDS011;56451;44.804;20.476;2022-10-16T06:59:47;7.68;;;4.07;;
68866;SDS011;56451;44.804;20.476;2022-10-16T07:02:13;5.88;;;3.63;;
68866;SDS011;56451;44.804;20.476;2022-10-16T07:04:39;6.10;;;3.80;;
68866;SDS011;56451;44.804;20.476;2022-10-16T07:07:04;8.10;;;3.92;;
68866;SDS011;56451;44.804;20.476;2022-10-16T07:09:34;5.93;;;4.18;;
68866;SDS011;56451;44.804;20.476;2022-10-16T07:11:59;8.53;;;4.30;;
68866;SDS011;56451;44.804;20.476;2022-10-16T07:14:25;8.30;;;4.20;;
68866;SDS011;56451;44.804;20.476;2022-10-16T07:16:51;8.10;;;4.10;;
68866;SDS011;56451;44.804;20.476;2022-10-16T07:19:17;8.87;;;4.20;;
68866;SDS011;56451;44.804;20.476;2022-10-16T07:21:43;7.82;;;4.20;;
68866;SDS011;56451;44.804;20.476;2022-10-16T07:24:11;5.68;;;3.42;;
68866;SDS011;56451;44.804;20.476;2022-10-16T07:26:39;6.78;;;3.85;;
68866;SDS011;56451;44.804;20.476;2022-10-16T07:29:15;5.95;;;3.67;;
68866;SDS011;56451;44.804;20.476;2022-10-16T07:31:43;5.27;;;3.83;;
68866;SDS011;56451;44.804;20.476;2022-10-16T07:34:11;6.60;;;3.78;;
68866;SDS011;56451;44.804;20.476;2022-10-16T07:36:39;8.00;;;4.18;;
68866;SDS011;56451;44.804;20.476;2022-10-16T07:39:05;7.85;;;3.92;;
68866;SDS011;56451;44.804;20.476;2022-10-16T07:41:31;7.10;;;3.50;;
68866;SDS011;56451;44.804;20.476;2022-10-16T07:43:58;5.63;;;3.80;;
68866;SDS011;56451;44.804;20.476;2022-10-16T07:46:26;6.72;;;3.65;;
68866;SDS011;56451;44.804;20.476;2022-10-16T07:48:52;9.80;;;4.07;;
68866;SDS011;56451;44.804;20.476;2022-10-16T07:51:19;8.52;;;4.30;;
68866;SDS011;56451;44.804;20.476;2022-10-16T07:53:47;6.20;;;3.80;;
68866;SDS011;56451;44.804;20.476;2022-10-16T07:56:13;8.00;;;4.00;;
68866;SDS011;56451;44.804;20.476;2022-10-16T07:58:39;7.55;;;3.72;;
68866;SDS011;56451;44.804;20.476;2022-10-16T08:01:07;7.20;;;3.63;;
68866;SDS011;56451;44.804;20.476;2022-10-16T08:03:34;7.22;;;4.28;;
68866;SDS011;56451;44.804;20.476;2022-10-16T08:06:01;6.80;;;3.80;;
68866;SDS011;56451;44.804;20.476;2022-10-16T08:08:27;6.07;;;3.80;;
68866;SDS011;56451;44.804;20.476;2022-10-16T08:10:54;8.20;;;3.90;;
68866;SDS011;56451;44.804;20.476;2022-10-16T08:13:20;6.28;;;3.22;;
68866;SDS011;56451;44.804;20.476;2022-10-16T08:15:48;8.30;;;3.60;;
68866;SDS011;56451;44.804;20.476;2022-10-16T08:18:14;9.97;;;2.90;;
68866;SDS011;56451;44.804;20.476;2022-10-16T08:20:42;7.95;;;3.50;;
68866;SDS011;56451;44.804;20.476;2022-10-16T08:23:09;7.20;;;3.38;;
68866;SDS011;56451;44.804;20.476;2022-10-16T08:25:38;5.22;;;3.33;;
68866;SDS011;56451;44.804;20.476;2022-10-16T08:28:05;5.27;;;3.13;;
68866;SDS011;56451;44.804;20.476;2022-10-16T08:30:32;9.30;;;3.58;;
68866;SDS011;56451;44.804;20.476;2022-10-16T08:32:58;4.78;;;3.35;;
68866;SDS011;56451;44.804;20.476;2022-10-16T08:35:25;7.15;;;3.65;;
68866;SDS011;56451;44.804;20.476;2022-10-16T08:37:51;5.15;;;3.53;;
68866;SDS011;56451;44.804;20.476;2022-10-16T08:40:20;6.67;;;3.27;;
68866;SDS011;56451;44.804;20.476;2022-10-16T08:43:12;9.70;;;3.60;;
68866;SDS011;56451;44.804;20.476;2022-10-16T08:46:07;5.75;;;3.20;;
68866;SDS011;56451;44.804;20.476;2022-10-16T08:51:11;7.15;;;3.17;;
68866;SDS011;56451;44.804;20.476;2022-10-16T08:53:52;4.83;;;3.40;;
68866;SDS011;56451;44.804;20.476;2022-10-16T08:56:21;6.40;;;3.22;;
68866;SDS011;56451;44.804;20.476;2022-10-16T08:58:51;6.63;;;3.28;;
68866;SDS011;56451;44.804;20.476;2022-10-16T09:01:18;5.65;;;3.70;;
68866;SDS011;56451;44.804;20.476;2022-10-16T09:09:26;5.18;;;3.45;;
68866;SDS011;56451;44.804;20.476;2022-10-16T09:13:00;5.07;;;3.10;;
68866;SDS011;56451;44.804;20.476;2022-10-16T09:23:19;5.20;;;3.22;;
68866;SDS011;56451;44.804;20.476;2022-10-16T09:25:50;5.10;;;3.50;;
68866;SDS011;56451;44.804;20.476;2022-10-16T09:28:17;6.90;;;3.47;;
68866;SDS011;56451;44.804;20.476;2022-10-16T09:30:44;5.78;;;3.63;;
68866;SDS011;56451;44.804;20.476;2022-10-16T09:33:12;4.57;;;3.17;;
68866;SDS011;56451;44.804;20.476;2022-10-16T09:35:40;5.18;;;3.55;;
68866;SDS011;56451;44.804;20.476;2022-10-16T09:40:54;6.53;;;3.53;;
68866;SDS011;56451;44.804;20.476;2022-10-16T09:46:00;7.50;;;3.80;;
68866;SDS011;56451;44.804;20.476;2022-10-16T09:48:36;5.97;;;3.63;;
68866;SDS011;56451;44.804;20.476;2022-10-16T09:51:05;4.28;;;3.55;;
68866;SDS011;56451;44.804;20.476;2022-10-16T09:53:39;8.93;;;4.32;;
68866;SDS011;56451;44.804;20.476;2022-10-16T09:56:09;7.85;;;4.00;;
68866;SDS011;56451;44.804;20.476;2022-10-16T09:58:41;7.33;;;3.87;;
68866;SDS011;56451;44.804;20.476;2022-10-16T10:01:11;4.97;;;3.38;;
68866;SDS011;56451;44.804;20.476;2022-10-16T10:03:41;7.75;;;3.88;;
68866;SDS011;56451;44.804;20.476;2022-10-16T10:06:16;5.32;;;3.67;;
68866;SDS011;56451;44.804;20.476;2022-10-16T10:08:58;6.90;;;4.10;;
68866;SDS011;56451;44.804;20.476;2022-10-16T10:11:40;7.90;;;3.40;;
68866;SDS011;56451;44.804;20.476;2022-10-16T10:14:13;5.57;;;3.45;;
68866;SDS011;56451;44.804;20.476;2022-10-16T10:16:49;6.00;;;4.00;;
68866;SDS011;56451;44.804;20.476;2022-10-16T10:19:17;6.43;;;3.97;;
68866;SDS011;56451;44.804;20.476;2022-10-16T10:21:45;6.15;;;3.83;;
68866;SDS011;56451;44.804;20.476;2022-10-16T10:24:14;7.37;;;3.90;;
68866;SDS011;56451;44.804;20.476;2022-10-16T10:27:05;6.63;;;4.15;;
68866;SDS011;56451;44.804;20.476;2022-10-16T10:29:40;8.35;;;4.32;;
68866;SDS011;56451;44.804;20.476;2022-10-16T10:32:33;6.35;;;3.92;;
68866;SDS011;56451;44.804;20.476;2022-10-16T10:35:30;9.20;;;4.38;;
68866;SDS011;56451;44.804;20.476;2022-10-16T10:40:52;7.57;;;4.10;;
68866;SDS011;56451;44.804;20.476;2022-10-16T10:43:52;6.60;;;3.75;;
68866;SDS011;56451;44.804;20.476;2022-10-16T10:46:32;8.60;;;4.22;;
68866;SDS011;56451;44.804;20.476;2022-10-16T10:49:08;6.88;;;4.45;;
68866;SDS011;56451;44.804;20.476;2022-10-16T10:54:24;6.43;;;4.28;;
68866;SDS011;56451;44.804;20.476;2022-10-16T10:57:00;7.22;;;4.30;;
68866;SDS011;56451;44.804;20.476;2022-10-16T11:05:17;8.17;;;4.37;;
68866;SDS011;56451;44.804;20.476;2022-10-16T11:16:43;7.22;;;4.35;;
68866;SDS011;56451;44.804;20.476;2022-10-16T11:19:37;7.20;;;4.80;;
68866;SDS011;56451;44.804;20.476;2022-10-16T11:24:58;8.05;;;5.03;;
68866;SDS011;56451;44.804;20.476;2022-10-16T11:27:34;7.15;;;4.60;;
68866;SDS011;56451;44.804;20.476;2022-10-16T11:30:02;10.35;;;5.55;;
68866;SDS011;56451;44.804;20.476;2022-10-16T11:32:34;8.87;;;4.90;;
68866;SDS011;56451;44.804;20.476;2022-10-16T11:35:15;8.40;;;5.32;;
68866;SDS011;56451;44.804;20.476;2022-10-16T11:37:49;8.40;;;4.63;;
68866;SDS011;56451;44.804;20.476;2022-10-16T11:43:13;7.75;;;4.93;;
68866;SDS011;56451;44.804;20.476;2022-10-16T11:45:46;7.43;;;5.30;;
68866;SDS011;56451;44.804;20.476;2022-10-16T11:50:50;6.90;;;4.43;;
68866;SDS011;56451;44.804;20.476;2022-10-16T11:56:08;7.03;;;4.75;;
68866;SDS011;56451;44.804;20.476;2022-10-16T11:58:41;8.60;;;5.20;;
68866;SDS011;56451;44.804;20.476;2022-10-16T12:01:28;8.80;;;5.15;;
68866;SDS011;56451;44.804;20.476;2022-10-16T12:04:06;9.27;;;5.53;;
68866;SDS011;56451;44.804;20.476;2022-10-16T12:09:49;11.50;;;5.22;;
68866;SDS011;56451;44.804;20.476;2022-10-16T12:12:25;8.83;;;5.27;;
68866;SDS011;56451;44.804;20.476;2022-10-16T12:15:22;9.30;;;5.22;;
68866;SDS011;56451;44.804;20.476;2022-10-16T12:17:54;11.50;;;5.85;;
68866;SDS011;56451;44.804;20.476;2022-10-16T12:22:52;10.25;;;5.80;;
68866;SDS011;56451;44.804;20.476;2022-10-16T12:25:29;7.47;;;5.20;;
68866;SDS011;56451;44.804;20.476;2022-10-16T12:28:15;10.75;;;5.65;;
68866;SDS011;56451;44.804;20.476;2022-10-16T12:31:03;8.32;;;5.22;;
68866;SDS011;56451;44.804;20.476;2022-10-16T12:33:32;6.80;;;5.30;;
68866;SDS011;56451;44.804;20.476;2022-10-16T12:36:00;8.98;;;5.32;;
68866;SDS011;56451;44.804;20.476;2022-10-16T12:38:45;10.33;;;5.63;;
68866;SDS011;56451;44.804;20.476;2022-10-16T12:41:24;11.00;;;6.30;;
68866;SDS011;56451;44.804;20.476;2022-10-16T12:43:54;9.70;;;6.47;;
68866;SDS011;56451;44.804;20.476;2022-10-16T12:46:41;9.60;;;6.35;;
68866;SDS011;56451;44.804;20.476;2022-10-16T12:49:16;8.43;;;6.82;;
68866;SDS011;56451;44.804;20.476;2022-10-16T12:51:47;9.20;;;6.83;;
68866;SDS011;56451;44.804;20.476;2022-10-16T12:54:29;10.98;;;6.25;;
68866;SDS011;56451;44.804;20.476;2022-10-16T13:27:31;8.18;;;5.25;;
68866;SDS011;56451;44.804;20.476;2022-10-16T13:30:00;10.65;;;6.03;;
68866;SDS011;56451;44.804;20.476;2022-10-16T13:32:34;11.93;;;6.00;;
68866;SDS011;56451;44.804;20.476;2022-10-16T13:35:00;8.50;;;5.53;;
68866;SDS011;56451;44.804;20.476;2022-10-16T13:37:26;8.77;;;5.32;;
68866;SDS011;56451;44.804;20.476;2022-10-16T13:40:02;10.38;;;5.85;;
68866;SDS011;56451;44.804;20.476;2022-10-16T13:42:53;9.30;;;5.13;;
68866;SDS011;56451;44.804;20.476;2022-10-16T13:45:20;7.93;;;5.65;;
68866;SDS011;56451;44.804;20.476;2022-10-16T13:47:47;9.82;;;5.75;;
68866;SDS011;56451;44.804;20.476;2022-10-16T13:50:14;8.55;;;5.40;;
68866;SDS011;56451;44.804;20.476;2022-10-16T13:52:42;11.50;;;6.27;;
68866;SDS011;56451;44.804;20.476;2022-10-16T13:55:15;9.30;;;5.50;;
68866;SDS011;56451;44.804;20.476;2022-10-16T13:57:43;8.82;;;5.80;;
68866;SDS011;56451;44.804;20.476;2022-10-16T14:00:25;10.50;;;5.78;;
68866;SDS011;56451;44.804;20.476;2022-10-16T14:02:57;14.13;;;6.00;;
68866;SDS011;56451;44.804;20.476;2022-10-16T14:05:27;8.43;;;5.40;;
68866;SDS011;56451;44.804;20.476;2022-10-16T14:07:53;8.82;;;5.35;;
68866;SDS011;56451;44.804;20.476;2022-10-16T14:12:57;9.48;;;6.30;;
68866;SDS011;56451;44.804;20.476;2022-10-16T14:15:25;8.75;;;6.03;;
68866;SDS011;56451;44.804;20.476;2022-10-16T14:17:51;9.90;;;5.93;;
68866;SDS011;56451;44.804;20.476;2022-10-16T14:20:19;12.30;;;6.70;;
68866;SDS011;56451;44.804;20.476;2022-10-16T14:22:49;9.40;;;5.90;;
68866;SDS011;56451;44.804;20.476;2022-10-16T14:25:29;8.55;;;5.97;;
68866;SDS011;56451;44.804;20.476;2022-10-16T14:28:39;9.45;;;5.80;;
68866;SDS011;56451;44.804;20.476;2022-10-16T14:33:25;10.55;;;5.90;;
68866;SDS011;56451;44.804;20.476;2022-10-16T14:38:29;9.15;;;6.15;;
68866;SDS011;56451;44.804;20.476;2022-10-16T14:40:56;8.93;;;5.53;;
68866;SDS011;56451;44.804;20.476;2022-10-16T14:46:00;8.32;;;5.20;;
68866;SDS011;56451;44.804;20.476;2022-10-16T14:48:27;8.55;;;5.30;;
68866;SDS011;56451;44.804;20.476;2022-10-16T14:50:54;9.10;;;5.35;;
68866;SDS011;56451;44.804;20.476;2022-10-16T14:53:20;7.80;;;4.85;;
68866;SDS011;56451;44.804;20.476;2022-10-16T14:55:46;8.87;;;5.07;;
68866;SDS011;56451;44.804;20.476;2022-10-16T14:58:17;8.40;;;5.45;;
68866;SDS011;56451;44.804;20.476;2022-10-16T15:00:45;9.60;;;5.40;;
68866;SDS011;56451;44.804;20.476;2022-10-16T15:03:12;7.35;;;5.50;;
68866;SDS011;56451;44.804;20.476;2022-10-16T15:05:38;9.27;;;5.53;;
68866;SDS011;56451;44.804;20.476;2022-10-16T15:08:04;8.48;;;5.95;;
68866;SDS011;56451;44.804;20.476;2022-10-16T15:10:30;15.48;;;6.50;;
68866;SDS011;56451;44.804;20.476;2022-10-16T15:12:58;7.78;;;5.13;;
68866;SDS011;56451;44.804;20.476;2022-10-16T15:18:03;8.35;;;5.63;;
68866;SDS011;56451;44.804;20.476;2022-10-16T15:20:32;9.48;;;5.80;;
68866;SDS011;56451;44.804;20.476;2022-10-16T15:23:08;11.65;;;6.45;;
68866;SDS011;56451;44.804;20.476;2022-10-16T15:28:09;9.83;;;6.17;;
68866;SDS011;56451;44.804;20.476;2022-10-16T15:30:36;11.63;;;6.38;;
68866;SDS011;56451;44.804;20.476;2022-10-16T15:33:03;9.82;;;6.57;;
68866;SDS011;56451;44.804;20.476;2022-10-16T15:35:30;10.43;;;6.35;;
68866;SDS011;56451;44.804;20.476;2022-10-16T15:37:57;12.32;;;6.32;;
68866;SDS011;56451;44.804;20.476;2022-10-16T15:40:23;10.07;;;6.73;;
68866;SDS011;56451;44.804;20.476;2022-10-16T15:42:48;9.77;;;6.47;;
68866;SDS011;56451;44.804;20.476;2022-10-16T15:45:15;9.75;;;6.32;;
68866;SDS011;56451;44.804;20.476;2022-10-16T15:47:41;11.15;;;7.13;;
68866;SDS011;56451;44.804;20.476;2022-10-16T15:50:09;11.57;;;6.50;;
68866;SDS011;56451;44.804;20.476;2022-10-16T15:52:37;10.35;;;6.82;;
68866;SDS011;56451;44.804;20.476;2022-10-16T15:55:08;11.55;;;7.13;;
68866;SDS011;56451;44.804;20.476;2022-10-16T15:57:35;11.60;;;6.70;;
68866;SDS011;56451;44.804;20.476;2022-10-16T16:00:05;10.60;;;6.38;;
68866;SDS011;56451;44.804;20.476;2022-10-16T16:02:38;11.57;;;7.17;;
68866;SDS011;56451;44.804;20.476;2022-10-16T16:05:04;11.45;;;6.75;;
68866;SDS011;56451;44.804;20.476;2022-10-16T16:07:32;12.90;;;6.53;;
68866;SDS011;56451;44.804;20.476;2022-10-16T16:10:03;14.23;;;7.63;;
68866;SDS011;56451;44.804;20.476;2022-10-16T16:12:31;14.45;;;7.85;;
68866;SDS011;56451;44.804;20.476;2022-10-16T16:14:57;11.70;;;6.33;;
68866;SDS011;56451;44.804;20.476;2022-10-16T16:17:23;9.55;;;5.47;;
68866;SDS011;56451;44.804;20.476;2022-10-16T16:19:49;14.23;;;6.78;;
68866;SDS011;56451;44.804;20.476;2022-10-16T16:22:16;11.93;;;6.30;;
68866;SDS011;56451;44.804;20.476;2022-10-16T16:24:42;11.00;;;6.53;;
68866;SDS011;56451;44.804;20.476;2022-10-16T16:27:08;16.50;;;7.13;;
68866;SDS011;56451;44.804;20.476;2022-10-16T16:29:34;13.88;;;6.47;;
68866;SDS011;56451;44.804;20.476;2022-10-16T16:32:00;10.82;;;6.05;;
68866;SDS011;56451;44.804;20.476;2022-10-16T16:34:26;11.45;;;5.88;;
68866;SDS011;56451;44.804;20.476;2022-10-16T16:36:53;8.20;;;5.97;;
68866;SDS011;56451;44.804;20.476;2022-10-16T16:39:20;8.77;;;6.32;;
68866;SDS011;56451;44.804;20.476;2022-10-16T16:41:46;10.23;;;5.45;;
68866;SDS011;56451;44.804;20.476;2022-10-16T16:44:13;10.55;;;6.00;;
68866;SDS011;56451;44.804;20.476;2022-10-16T16:46:40;13.45;;;5.78;;
68866;SDS011;56451;44.804;20.476;2022-10-16T16:49:09;11.57;;;6.37;;